Time;durP1;ratioP1;P1;durP2;ratioP2;P2;SDS_P1;SDS_P2;PMS_P1;PMS_P2;Temp;Humidity;BMP_temperature;BMP_pressure;BME280_temperature;BME280_humidity;BME280_pressure;Samples;Min_cycle;Max_cycle;Signal;HPM_P1;HPM_P2
2022/06/20 00:01:01;;;;;;;5.57;2.20;;;;;;;13.89;100.00;100275.09;5036454;28;20032;-66
2022/06/20 00:03:30;;;;;;;5.90;3.22;;;;;;;13.95;100.00;100281.78;5046928;28;20036;-67
2022/06/20 00:05:55;;;;;;;6.45;2.28;;;;;;;13.90;100.00;100258.31;5044753;28;20128;-67
2022/06/20 00:08:21;;;;;;;11.80;2.30;;;;;;;13.93;100.00;100252.81;5034328;28;20032;-67
2022/06/20 00:10:47;;;;;;;3.95;1.90;;;;;;;13.89;100.00;100246.03;5053908;28;20032;-67
2022/06/20 00:13:28;;;;;;;6.88;2.60;;;;;;;13.95;100.00;100258.84;5024176;28;20093;-66
2022/06/20 00:16:00;;;;;;;9.90;2.67;;;;;;;13.92;100.00;100272.28;5044796;28;20046;-66
2022/06/20 00:18:25;;;;;;;4.20;2.42;;;;;;;13.88;100.00;100278.69;5046874;28;20044;-66
2022/06/20 00:20:51;;;;;;;10.40;3.10;;;;;;;13.91;100.00;100307.56;5080783;28;20031;-66
2022/06/20 00:23:16;;;;;;;6.32;2.70;;;;;;;13.96;100.00;100347.72;5077483;28;20039;-66
2022/06/20 00:25:42;;;;;;;7.25;3.15;;;;;;;13.91;100.00;100394.72;5073886;28;20073;-66
2022/06/20 00:28:08;;;;;;;9.18;2.90;;;;;;;13.66;100.00;100444.75;5063284;28;20027;-67
2022/06/20 00:30:34;;;;;;;6.95;3.33;;;;;;;13.72;100.00;100539.44;5078468;28;20032;-68
2022/06/20 00:33:00;;;;;;;7.47;2.90;;;;;;;13.59;100.00;100575.44;5083507;28;20042;-67
2022/06/20 00:35:25;;;;;;;23.48;3.92;;;;;;;13.58;100.00;100585.19;5077644;28;20036;-67
2022/06/20 00:37:53;;;;;;;8.13;3.53;;;;;;;13.38;100.00;100535.34;5066654;28;20794;-66
2022/06/20 00:40:20;;;;;;;6.90;3.08;;;;;;;13.29;100.00;100507.69;5054229;28;20113;-64
2022/06/20 00:42:46;;;;;;;11.55;3.63;;;;;;;13.16;100.00;100496.19;5048280;28;20039;-64
2022/06/20 00:45:12;;;;;;;7.28;3.78;;;;;;;13.05;100.00;100474.81;5058569;28;20911;-65
2022/06/20 00:47:37;;;;;;;7.72;4.13;;;;;;;12.91;100.00;100451.03;5054765;28;20029;-65
2022/06/20 00:50:07;;;;;;;10.82;4.28;;;;;;;12.58;100.00;100384.47;5039415;28;20143;-65
2022/06/20 00:52:40;;;;;;;9.68;3.97;;;;;;;12.75;100.00;100403.63;5036215;28;20032;-65
2022/06/20 00:55:28;;;;;;;7.72;4.13;;;;;;;12.67;100.00;100383.94;5039536;28;20032;-65
2022/06/20 00:58:35;;;;;;;8.45;4.65;;;;;;;12.73;100.00;100388.84;5038130;28;20147;-64
2022/06/20 01:01:01;;;;;;;15.73;5.03;;;;;;;12.74;100.00;100385.28;4994846;28;20033;-64
2022/06/20 01:03:29;;;;;;;9.77;5.15;;;;;;;12.62;100.00;100355.22;5020516;28;20147;-65
2022/06/20 01:06:04;;;;;;;9.43;4.55;;;;;;;12.56;100.00;100338.91;5040256;28;20028;-64
2022/06/20 01:08:34;;;;;;;10.23;4.57;;;;;;;12.61;100.00;100334.19;5020442;28;20032;-65
2022/06/20 01:11:03;;;;;;;10.75;4.45;;;;;;;12.61;100.00;100315.75;5041409;28;20039;-65
2022/06/20 01:13:29;;;;;;;9.48;4.70;;;;;;;12.62;100.00;100320.09;5038890;28;20979;-65
2022/06/20 01:16:28;;;;;;;8.20;4.22;;;;;;;12.59;100.00;100315.84;5051512;28;20040;-65
2022/06/20 01:18:55;;;;;;;6.82;3.97;;;;;;;12.38;100.00;100277.59;5017914;28;20090;-65
2022/06/20 01:21:28;;;;;;;12.63;5.15;;;;;;;12.53;100.00;100300.41;5050381;28;20032;-65
2022/06/20 01:24:06;;;;;;;7.65;4.05;;;;;;;12.53;100.00;100287.22;5044518;28;20042;-65
2022/06/20 01:26:40;;;;;;;9.90;5.43;;;;;;;12.53;100.00;100281.97;5042771;28;20041;-65
2022/06/20 01:29:06;;;;;;;;;;;;;;;12.50;100.00;100286.56;5034870;28;20039;-64
2022/06/20 01:31:36;;;;;;;9.38;5.25;;;;;;;12.45;100.00;100280.72;5041080;28;19908;-64
2022/06/20 01:34:01;;;;;;;7.35;4.65;;;;;;;12.43;100.00;100258.88;5053474;28;20017;-64
2022/06/20 01:39:15;;;;;;;13.35;5.80;;;;;;;12.42;100.00;100257.19;5068729;28;20062;-64
2022/06/20 01:44:25;;;;;;;44.63;7.68;;;;;;;12.32;100.00;100224.41;5041681;28;20070;-64
2022/06/20 01:46:50;;;;;;;9.35;5.30;;;;;;;12.27;100.00;100198.34;5042581;28;20036;-64
2022/06/20 01:49:19;;;;;;;17.83;5.35;;;;;;;12.33;100.00;100190.09;5043645;28;20036;-64
2022/06/20 01:51:50;;;;;;;1.55;0.90;;;;;;;12.29;100.00;100192.06;5065264;28;20035;-64
2022/06/20 01:54:16;;;;;;;7.65;3.55;;;;;;;12.28;100.00;100198.25;5047193;28;20078;-64
2022/06/20 01:56:43;;;;;;;8.80;5.65;;;;;;;12.21;100.00;100191.66;5052323;28;20063;-64
2022/06/20 01:59:12;;;;;;;11.18;6.13;;;;;;;12.22;100.00;100197.78;5042181;28;20034;-64
2022/06/20 02:01:37;;;;;;;149.32;100.07;;;;;;;12.06;100.00;100173.31;5080269;28;20016;-64
2022/06/20 02:04:12;;;;;;;11.10;6.13;;;;;;;12.06;100.00;100184.69;5078886;28;20142;-64
2022/06/20 02:06:37;;;;;;;31.25;28.45;;;;;;;12.13;100.00;100199.16;5071648;28;20025;-64
2022/06/20 02:09:04;;;;;;;15.27;5.53;;;;;;;12.02;100.00;100200.75;5074505;28;20031;-65
2022/06/20 02:11:40;;;;;;;10.13;6.72;;;;;;;11.82;100.00;100188.78;5053188;28;20028;-64
2022/06/20 02:14:10;;;;;;;14.70;6.18;;;;;;;11.95;100.00;100216.06;5057582;28;20088;-64
2022/06/20 02:16:39;;;;;;;17.23;6.78;;;;;;;11.91;100.00;100197.91;5026484;28;20604;-64
2022/06/20 02:19:06;;;;;;;17.85;6.50;;;;;;;11.74;100.00;100159.41;5064442;28;20064;-64
2022/06/20 02:21:33;;;;;;;12.77;5.90;;;;;;;11.85;100.00;100171.94;5034410;28;20577;-65
2022/06/20 02:24:15;;;;;;;12.48;6.65;;;;;;;11.80;100.00;100174.84;5049836;28;20056;-64
2022/06/20 02:26:43;;;;;;;12.93;5.30;;;;;;;11.71;100.00;100185.91;5041935;28;20021;-64
2022/06/20 02:29:21;;;;;;;15.88;6.47;;;;;;;11.64;100.00;100169.59;5041449;28;20047;-65
2022/06/20 02:31:49;;;;;;;12.52;6.65;;;;;;;11.76;100.00;100187.31;5030052;28;20091;-65
2022/06/20 02:34:14;;;;;;;14.02;8.63;;;;;;;11.81;100.00;100202.84;5041987;28;20143;-66
2022/06/20 02:36:40;;;;;;;15.05;8.25;;;;;;;11.87;100.00;100213.03;5080787;28;20032;-65
2022/06/20 02:39:05;;;;;;;607.35;51.80;;;;;;;11.81;100.00;100197.59;5054043;28;20039;-65
2022/06/20 02:41:31;;;;;;;21.67;9.98;;;;;;;11.77;100.00;100185.53;5055962;28;20109;-65
2022/06/20 02:44:05;;;;;;;17.30;9.35;;;;;;;11.92;100.00;100205.72;5044767;28;20032;-65
2022/06/20 02:46:31;;;;;;;18.55;7.75;;;;;;;11.85;100.00;100187.72;5045113;28;20043;-66
2022/06/20 02:48:57;;;;;;;16.83;9.60;;;;;;;11.95;100.00;100199.41;5047200;28;20040;-65
2022/06/20 02:51:30;;;;;;;12.32;7.72;;;;;;;11.82;100.00;100164.22;5054653;28;20422;-65
2022/06/20 02:53:58;;;;;;;22.80;9.20;;;;;;;11.96;100.00;100169.53;5018374;28;20048;-65
2022/06/20 02:56:27;;;;;;;18.92;8.88;;;;;;;11.95;100.00;100166.03;5058562;28;20059;-65
2022/06/20 02:58:59;;;;;;;17.00;6.90;;;;;;;11.87;100.00;100168.28;5052347;28;20028;-65
2022/06/20 03:01:52;;;;;;;15.68;7.00;;;;;;;11.94;100.00;100185.41;5024863;28;20020;-65
2022/06/20 03:04:19;;;;;;;18.75;10.85;;;;;;;11.99;100.00;100170.19;5048393;28;20566;-65
2022/06/20 03:06:50;;;;;;;18.13;10.50;;;;;;;11.95;100.00;100167.81;5059200;28;20139;-65
2022/06/20 03:09:18;;;;;;;12.70;8.27;;;;;;;11.93;100.00;100174.97;5037201;28;20029;-65
2022/06/20 03:11:44;;;;;;;17.00;8.80;;;;;;;11.90;100.00;100191.78;5052944;28;20115;-65
2022/06/20 03:14:15;;;;;;;20.58;8.65;;;;;;;11.90;100.00;100197.03;5042089;28;20729;-65
2022/06/20 03:16:40;;;;;;;16.08;7.38;;;;;;;11.93;100.00;100188.16;5047908;28;20141;-65
2022/06/20 03:19:10;;;;;;;22.77;9.85;;;;;;;11.43;100.00;100093.69;5050413;28;20775;-65
2022/06/20 03:21:37;;;;;;;13.93;8.07;;;;;;;11.84;100.00;100178.97;5043020;28;20036;-65
2022/06/20 03:24:03;;;;;;;17.33;8.30;;;;;;;11.71;100.00;100164.84;5039334;28;20028;-65
2022/06/20 03:26:30;;;;;;;23.13;10.05;;;;;;;11.89;100.00;100200.63;5053265;28;20288;-65
2022/06/20 03:28:56;;;;;;;16.10;7.60;;;;;;;11.83;100.00;100211.50;5031030;28;20024;-64
2022/06/20 03:31:21;;;;;;;15.27;7.15;;;;;;;11.81;100.00;100217.81;5070646;28;20400;-66
2022/06/20 03:33:47;;;;;;;16.65;7.10;;;;;;;11.87;100.00;100260.41;5080039;28;20039;-65
2022/06/20 03:36:16;;;;;;;13.52;6.70;;;;;;;11.79;100.00;100275.81;5077072;28;20449;-65
2022/06/20 03:38:43;;;;;;;11.27;6.00;;;;;;;11.80;100.00;100285.41;5070647;28;20023;-65
2022/06/20 03:41:09;;;;;;;19.58;6.55;;;;;;;11.84;100.00;100302.72;5067006;28;20063;-65
2022/06/20 03:43:35;;;;;;;28.05;7.03;;;;;;;11.79;100.00;100310.03;5088083;28;20458;-65
2022/06/20 03:46:10;;;;;;;19.90;7.32;;;;;;;11.79;100.00;100331.09;5055912;28;20052;-65
2022/06/20 03:48:40;;;;;;;15.40;7.63;;;;;;;11.84;100.00;100342.22;5066182;28;20124;-65
2022/06/20 03:51:13;;;;;;;18.17;7.03;;;;;;;11.81;100.00;100352.06;5043852;28;20051;-65
2022/06/20 03:53:46;;;;;;;10.15;5.93;;;;;;;11.85;100.00;100379.94;5054309;28;20043;-65
2022/06/20 03:56:18;;;;;;;16.48;7.32;;;;;;;11.75;100.00;100355.91;5065148;28;20099;-66
2022/06/20 03:59:01;;;;;;;13.05;7.60;;;;;;;12.00;100.00;100393.06;5042879;28;20868;-65
2022/06/20 04:01:30;;;;;;;20.38;8.10;;;;;;;11.99;100.00;100383.50;5045377;28;20034;-66
2022/06/20 04:04:12;;;;;;;16.83;7.88;;;;;;;12.07;100.00;100407.59;5027756;28;20035;-66
2022/06/20 04:06:57;;;;;;;16.70;6.30;;;;;;;12.15;100.00;100407.16;5088478;28;20032;-65
2022/06/20 04:12:35;;;;;;;16.67;7.50;;;;;;;12.20;100.00;100391.97;5050127;28;20043;-65
2022/06/20 04:15:15;;;;;;;17.15;8.93;;;;;;;12.18;100.00;100391.19;5045423;28;20076;-65
2022/06/20 04:21:03;;;;;;;14.55;7.45;;;;;;;12.24;100.00;100402.22;5042751;28;20878;-65
2022/06/20 04:23:34;;;;;;;16.75;7.50;;;;;;;12.20;100.00;100400.69;5032712;28;20027;-66
2022/06/20 04:26:12;;;;;;;18.17;6.60;;;;;;;12.08;100.00;100375.06;5038271;28;20197;-66
2022/06/20 04:28:58;;;;;;;18.40;6.28;;;;;;;12.21;100.00;100391.88;5074865;28;20044;-65
2022/06/20 04:31:46;;;;;;;18.10;6.88;;;;;;;12.13;100.00;100378.28;5074604;28;20104;-65
2022/06/20 04:34:14;;;;;;;15.75;7.35;;;;;;;12.13;100.00;100362.47;5062499;28;20544;-65
2022/06/20 04:36:51;;;;;;;22.77;7.50;;;;;;;12.17;100.00;100364.00;5078889;28;20175;-65
2022/06/20 04:39:24;;;;;;;11.57;7.25;;;;;;;12.11;100.00;100345.06;5069192;28;20151;-66
2022/06/20 04:41:58;;;;;;;18.17;8.45;;;;;;;12.24;100.00;100360.06;5059588;28;20094;-66
2022/06/20 04:44:47;;;;;;;;;;;;;;;12.36;100.00;100373.50;5028615;28;20128;-65
2022/06/20 04:47:26;;;;;;;23.17;7.75;;;;;;;12.35;100.00;100377.91;5058446;28;19916;-65
2022/06/20 04:49:51;;;;;;;13.25;6.43;;;;;;;12.21;100.00;100368.16;5060604;28;20032;-65
2022/06/20 04:52:20;;;;;;;16.25;7.22;;;;;;;12.19;100.00;100377.94;5064826;28;20020;-65
2022/06/20 04:54:45;;;;;;;11.18;6.25;;;;;;;12.17;100.00;100364.00;5040224;28;20828;-65
2022/06/20 04:57:12;;;;;;;11.13;6.28;;;;;;;12.22;100.00;100372.50;5048695;28;20035;-65
2022/06/20 04:59:38;;;;;;;14.00;6.82;;;;;;;12.09;100.00;100371.50;5052464;28;20028;-65
2022/06/20 05:02:09;;;;;;;18.70;6.25;;;;;;;12.15;100.00;100370.28;5079561;28;20029;-65
2022/06/20 05:04:41;;;;;;;13.07;6.78;;;;;;;12.17;100.00;100371.03;5050218;28;20032;-65
2022/06/20 05:07:17;;;;;;;9.65;6.70;;;;;;;12.15;100.00;100359.75;5015918;28;20028;-65
2022/06/20 05:09:50;;;;;;;14.40;7.05;;;;;;;12.16;100.00;100362.31;5034984;28;20032;-65
2022/06/20 05:12:24;;;;;;;13.63;6.97;;;;;;;12.09;100.00;100362.75;5040926;28;20077;-65
2022/06/20 05:14:54;;;;;;;12.25;7.20;;;;;;;12.05;100.00;100359.44;5072005;28;20063;-64
2022/06/20 05:17:24;;;;;;;23.85;8.05;;;;;;;12.07;100.00;100357.56;5065024;28;20119;-65
2022/06/20 05:19:53;;;;;;;15.30;6.57;;;;;;;12.08;100.00;100369.78;5039440;28;20037;-65
2022/06/20 05:22:23;;;;;;;19.95;8.05;;;;;;;11.81;100.00;100317.84;5079199;28;20035;-65
2022/06/20 05:24:49;;;;;;;20.25;7.75;;;;;;;12.06;100.00;100366.41;5071103;28;20460;-65
2022/06/20 05:27:27;;;;;;;17.00;6.78;;;;;;;12.02;100.00;100353.50;5088598;28;20024;-65
2022/06/20 05:29:54;;;;;;;18.52;6.72;;;;;;;11.98;100.00;100370.41;5073702;28;20052;-65
2022/06/20 05:32:34;;;;;;;19.70;6.53;;;;;;;11.94;100.00;100382.88;5068265;28;20429;-65
2022/06/20 05:35:13;;;;;;;12.50;6.30;;;;;;;12.05;100.00;100379.66;5085043;28;20378;-65
2022/06/20 05:37:46;;;;;;;13.75;6.78;;;;;;;12.04;100.00;100368.28;5087717;28;20505;-65
2022/06/20 05:40:30;;;;;;;16.75;6.60;;;;;;;12.14;100.00;100379.13;5039678;28;20025;-65
2022/06/20 05:42:56;;;;;;;19.70;6.50;;;;;;;12.10;100.00;100367.91;5074820;28;20068;-65
2022/06/20 05:45:24;;;;;;;16.65;6.55;;;;;;;11.98;100.00;100352.81;5059543;28;20040;-65
2022/06/20 05:47:52;;;;;;;13.25;6.82;;;;;;;12.05;100.00;100369.97;5069539;28;20035;-65
2022/06/20 05:50:31;;;;;;;17.90;6.53;;;;;;;12.09;100.00;100387.31;5076235;28;20025;-65
2022/06/20 05:52:58;;;;;;;14.65;6.70;;;;;;;12.15;100.00;100410.66;5084689;28;20031;-65
2022/06/20 05:55:26;;;;;;;12.95;6.65;;;;;;;12.15;100.00;100405.38;5059825;28;20377;-64
2022/06/20 05:57:52;;;;;;;13.85;6.88;;;;;;;12.20;100.00;100421.78;5091388;28;20540;-65
2022/06/20 06:00:21;;;;;;;13.38;7.40;;;;;;;12.24;100.00;100410.13;5078622;28;20016;-65
2022/06/20 06:03:00;;;;;;;18.52;8.63;;;;;;;12.27;100.00;100396.78;5087016;28;20063;-65
2022/06/20 06:05:33;;;;;;;15.27;7.93;;;;;;;12.25;100.00;100393.41;5075522;28;20061;-64
2022/06/20 06:08:22;;;;;;;19.38;8.07;;;;;;;12.27;100.00;100391.50;5072222;28;20025;-65
2022/06/20 06:10:49;;;;;;;20.27;8.57;;;;;;;12.38;100.00;100400.59;5067690;28;20095;-64
2022/06/20 06:13:38;;;;;;;14.50;7.75;;;;;;;12.38;100.00;100393.53;5071828;28;20020;-64
2022/06/20 06:19:00;;;;;;;17.98;7.57;;;;;;;12.39;100.00;100411.06;5034571;28;20805;-64
2022/06/20 06:21:26;;;;;;;12.35;6.72;;;;;;;12.40;100.00;100401.38;5089342;28;20111;-65
2022/06/20 06:23:52;;;;;;;16.65;6.22;;;;;;;12.51;100.00;100402.44;5093121;28;20103;-65
2022/06/20 06:26:17;;;;;;;18.30;6.80;;;;;;;12.57;100.00;100414.41;5093104;28;20110;-64
2022/06/20 06:28:44;;;;;;;22.08;7.63;;;;;;;12.57;100.00;100425.78;5078051;28;20035;-64
2022/06/20 06:31:18;;;;;;;346.60;309.85;;;;;;;12.48;100.00;100436.88;5082723;28;20078;-64
2022/06/20 06:34:16;;;;;;;18.10;7.03;;;;;;;12.48;100.00;100443.91;5075798;28;20383;-65
2022/06/20 06:36:45;;;;;;;13.77;6.30;;;;;;;12.36;100.00;100436.72;5061026;28;20028;-65
2022/06/20 06:39:11;;;;;;;16.10;6.32;;;;;;;12.47;100.00;100453.59;5070841;28;20025;-64
2022/06/20 06:41:45;;;;;;;12.10;5.43;;;;;;;12.49;100.00;100456.16;5073751;28;20089;-64
2022/06/20 06:44:18;;;;;;;;;;;;;;;12.53;100.00;100450.66;5083670;28;20086;-64
2022/06/20 06:46:46;;;;;;;14.63;5.57;;;;;;;12.49;100.00;100448.25;5065394;28;19920;-64
2022/06/20 06:49:31;;;;;;;10.00;5.53;;;;;;;12.48;100.00;100452.69;5068565;28;20439;-65
2022/06/20 06:51:59;;;;;;;12.85;4.97;;;;;;;12.52;100.00;100448.94;5075088;28;20032;-64
2022/06/20 06:54:50;;;;;;;11.43;5.05;;;;;;;12.32;100.00;100414.13;5062808;28;20055;-64
2022/06/20 06:57:23;;;;;;;11.85;5.78;;;;;;;12.53;100.00;100452.44;5074287;28;20033;-64
2022/06/20 07:00:16;;;;;;;13.32;5.22;;;;;;;12.55;100.00;100458.44;5061944;28;20051;-64
2022/06/20 07:02:55;;;;;;;11.77;5.32;;;;;;;12.52;100.00;100464.75;5058278;28;20425;-64
2022/06/20 07:05:34;;;;;;;11.32;4.63;;;;;;;12.47;100.00;100455.41;5067508;28;20034;-64
2022/06/20 07:08:12;;;;;;;14.93;4.55;;;;;;;12.46;100.00;100459.00;5061254;28;20032;-64
2022/06/20 07:10:52;;;;;;;14.05;4.60;;;;;;;12.46;100.00;100457.19;5073648;28;20123;-64
2022/06/20 07:13:27;;;;;;;11.75;5.45;;;;;;;12.47;100.00;100471.22;5067952;28;20104;-65
2022/06/20 07:15:56;;;;;;;19.60;5.30;;;;;;;12.42;100.00;100462.72;5067851;28;20066;-64
2022/06/20 07:18:41;;;;;;;12.32;6.03;;;;;;;12.41;100.00;100461.88;5092187;28;20030;-64
2022/06/20 07:21:09;;;;;;;12.73;5.60;;;;;;;12.43;100.00;100459.16;5075190;28;20032;-64
2022/06/20 07:23:35;;;;;;;15.90;5.63;;;;;;;12.55;100.00;100475.13;5078786;28;20081;-64
2022/06/20 07:26:00;;;;;;;14.35;4.80;;;;;;;12.57;100.00;100465.31;5092152;28;20477;-64
2022/06/20 07:28:37;;;;;;;13.13;6.10;;;;;;;12.85;100.00;100490.97;5074126;28;20111;-64
2022/06/20 07:31:08;;;;;;;13.30;8.35;;;;;;;13.03;100.00;100496.97;5066893;28;20035;-65
2022/06/20 07:33:38;;;;;;;10.68;6.30;;;;;;;13.14;100.00;100497.22;5059420;28;20068;-64
2022/06/20 07:36:07;;;;;;;19.17;6.40;;;;;;;13.37;100.00;100494.06;5055292;28;20082;-64
2022/06/20 07:39:05;;;;;;;20.48;6.72;;;;;;;13.45;100.00;100509.44;5058516;28;20386;-65
2022/06/20 07:41:43;;;;;;;120.55;108.95;;;;;;;13.54;100.00;100509.72;5045703;28;20093;-65
2022/06/20 07:44:29;;;;;;;13.43;4.75;;;;;;;13.28;100.00;100463.75;5054150;28;20032;-64
2022/06/20 07:46:58;;;;;;;8.95;3.92;;;;;;;13.74;100.00;100512.00;5071330;28;20095;-64
2022/06/20 07:49:32;;;;;;;7.03;3.67;;;;;;;13.84;100.00;100517.56;5052722;28;20051;-65
2022/06/20 07:52:00;;;;;;;8.25;3.90;;;;;;;14.03;100.00;100526.03;5060303;28;20105;-65
2022/06/20 07:54:31;;;;;;;1999.90;999.90;;;;;;;13.97;100.00;100522.94;5059442;28;20056;-64
2022/06/20 07:57:13;;;;;;;10.20;3.63;;;;;;;13.98;100.00;100504.34;5065444;28;20024;-65
2022/06/20 07:59:48;;;;;;;8.13;4.32;;;;;;;14.31;100.00;100531.28;5064840;28;20024;-65
2022/06/20 08:02:30;;;;;;;9.25;4.53;;;;;;;14.41;100.00;100534.22;5047931;28;20082;-64
2022/06/20 08:04:58;;;;;;;12.10;4.60;;;;;;;14.33;100.00;100532.06;5062718;28;20554;-65
2022/06/20 08:07:42;;;;;;;7.65;3.35;;;;;;;14.38;100.00;100517.72;5085870;28;20048;-65
2022/06/20 08:10:13;;;;;;;16.77;3.95;;;;;;;14.48;100.00;100534.69;5084109;28;20024;-65
2022/06/20 08:12:45;;;;;;;8.70;3.00;;;;;;;14.45;100.00;100532.25;5069319;28;20017;-66
2022/06/20 08:15:29;;;;;;;9.27;3.47;;;;;;;14.49;100.00;100526.66;5082619;28;20028;-65
2022/06/20 08:17:55;;;;;;;6.27;3.47;;;;;;;14.54;100.00;100518.41;5084463;28;20032;-65
2022/06/20 08:20:22;;;;;;;9.65;3.78;;;;;;;14.65;100.00;100537.94;5071077;28;20039;-66
2022/06/20 08:22:53;;;;;;;7.97;3.65;;;;;;;14.65;100.00;100531.81;5076378;28;20025;-66
2022/06/20 08:25:22;;;;;;;7.43;3.17;;;;;;;14.64;100.00;100540.69;5081597;28;20035;-65
2022/06/20 08:27:56;;;;;;;12.70;4.90;;;;;;;14.58;100.00;100536.63;5090937;28;20043;-65
2022/06/20 08:30:42;;;;;;;6.28;3.72;;;;;;;14.73;100.00;100550.69;5072757;28;20516;-65
2022/06/20 08:33:28;;;;;;;4.90;2.65;;;;;;;14.73;100.00;100546.25;5084329;28;20111;-65
2022/06/20 08:36:03;;;;;;;12.52;3.08;;;;;;;14.73;100.00;100545.41;5069868;28;20040;-65
2022/06/20 08:38:43;;;;;;;12.05;4.15;;;;;;;15.02;100.00;100551.41;5062965;28;20039;-65
2022/06/20 08:41:20;;;;;;;6.57;3.58;;;;;;;15.13;100.00;100560.34;5079987;28;20355;-66
2022/06/20 08:44:35;;;;;;;9.90;3.85;;;;;;;15.23;100.00;100561.44;5074325;28;20028;-65
2022/06/20 08:47:37;;;;;;;8.98;3.78;;;;;;;15.45;100.00;100573.22;5033367;28;20055;-66
2022/06/20 08:50:08;;;;;;;7.85;3.03;;;;;;;15.38;100.00;100574.59;5059349;28;20050;-65
2022/06/20 08:53:04;;;;;;;9.07;4.43;;;;;;;15.41;100.00;100579.69;5063696;28;20061;-66
2022/06/20 08:55:39;;;;;;;10.73;3.95;;;;;;;15.47;100.00;100563.38;5094509;28;20051;-66
2022/06/20 08:58:11;;;;;;;6.60;3.55;;;;;;;15.84;100.00;100584.66;5051719;28;20024;-66
2022/06/20 09:00:43;;;;;;;10.25;4.10;;;;;;;16.08;100.00;100582.09;5076732;28;20077;-66
2022/06/20 09:03:11;;;;;;;16.15;5.28;;;;;;;16.24;100.00;100585.38;5079959;28;20028;-66
2022/06/20 09:05:52;;;;;;;8.18;3.97;;;;;;;16.18;100.00;100582.28;5073683;28;20564;-66
2022/06/20 09:08:27;;;;;;;10.80;4.82;;;;;;;16.03;100.00;100589.50;5056291;28;20036;-67
2022/06/20 09:11:18;;;;;;;83.93;12.02;;;;;;;15.94;100.00;100595.47;5054135;28;20032;-67
2022/06/20 09:14:08;;;;;;;168.27;38.05;;;;;;;15.73;100.00;100592.47;5057668;28;20119;-67
2022/06/20 09:16:45;;;;;;;8.32;3.10;;;;;;;15.51;100.00;100592.25;5067521;28;20041;-67
2022/06/20 09:19:45;;;;;;;853.72;173.95;;;;;;;15.49;100.00;100585.34;5024562;28;20102;-67
2022/06/20 09:22:29;;;;;;;16.92;6.18;;;;;;;15.57;100.00;100583.03;5053158;28;20961;-67
2022/06/20 09:25:27;;;;;;;1999.90;999.90;;;;;;;15.81;100.00;100591.97;5046548;28;20041;-67
2022/06/20 09:28:11;;;;;;;8.18;3.17;;;;;;;15.89;100.00;100575.50;5060247;28;20036;-66
2022/06/20 09:30:55;;;;;;;12.33;4.00;;;;;;;16.17;100.00;100581.44;5059785;28;20132;-67
2022/06/20 09:33:32;;;;;;;10.75;4.03;;;;;;;16.36;100.00;100591.59;5062953;28;20131;-67
2022/06/20 09:36:15;;;;;;;8.05;3.83;;;;;;;16.63;100.00;100583.47;5035884;28;20094;-67
2022/06/20 09:39:02;;;;;;;10.05;3.40;;;;;;;16.71;100.00;100597.06;5055749;28;20041;-66
2022/06/20 09:41:36;;;;;;;7.45;3.70;;;;;;;16.78;100.00;100595.66;5063154;28;20020;-67
2022/06/20 09:44:20;;;;;;;419.43;398.00;;;;;;;16.91;100.00;100598.25;5040999;28;20037;-67
2022/06/20 09:47:19;;;;;;;1999.90;999.90;;;;;;;16.71;100.00;100591.75;5072511;28;20282;-66
2022/06/20 09:49:56;;;;;;;35.55;32.38;;;;;;;16.43;100.00;100607.91;5051300;28;20399;-65
2022/06/20 09:52:34;;;;;;;6.85;2.75;;;;;;;16.28;100.00;100594.81;5066226;28;20135;-66
2022/06/20 09:55:06;;;;;;;7.80;2.80;;;;;;;16.33;100.00;100592.66;5043517;28;20048;-66
2022/06/20 09:57:34;;;;;;;9.30;3.85;;;;;;;16.55;100.00;100601.75;5070486;28;20033;-67
2022/06/20 10:00:17;;;;;;;4.82;2.92;;;;;;;16.77;100.00;100607.22;5055704;28;20043;-66
2022/06/20 10:03:04;;;;;;;5.07;2.17;;;;;;;16.87;100.00;100608.25;5064509;28;20064;-66
2022/06/20 10:05:47;;;;;;;5.95;2.65;;;;;;;16.89;100.00;100606.34;5028572;28;20024;-66
2022/06/20 10:08:35;;;;;;;5.65;2.55;;;;;;;16.95;100.00;100605.91;5049568;28;20036;-67
2022/06/20 10:11:09;;;;;;;8.18;2.78;;;;;;;17.00;100.00;100610.88;5044818;28;20033;-67
2022/06/20 10:13:50;;;;;;;7.25;2.47;;;;;;;16.96;100.00;100606.75;5065419;28;20039;-67
2022/06/20 10:16:28;;;;;;;4.93;2.35;;;;;;;17.26;100.00;100615.09;5059364;28;20123;-66
2022/06/20 10:19:21;;;;;;;199.25;184.00;;;;;;;17.48;100.00;100619.66;5064309;28;20099;-66
2022/06/20 10:21:55;;;;;;;205.45;186.88;;;;;;;17.40;100.00;100622.91;5092634;28;20024;-66
2022/06/20 10:24:32;;;;;;;482.70;48.17;;;;;;;16.83;100.00;100633.34;5069770;28;20028;-65
2022/06/20 10:27:19;;;;;;;6.32;2.75;;;;;;;16.83;100.00;100625.38;5087709;28;20036;-66
2022/06/20 10:30:07;;;;;;;10.32;2.95;;;;;;;16.85;100.00;100626.09;5073900;28;20058;-67
2022/06/20 10:32:41;;;;;;;103.88;17.05;;;;;;;16.71;100.00;100631.56;5038787;28;20032;-66
2022/06/20 10:35:12;;;;;;;1999.90;999.90;;;;;;;16.61;100.00;100623.41;5054309;28;20032;-67
2022/06/20 10:37:54;;;;;;;6.03;2.33;;;;;;;16.69;100.00;100631.69;5043522;28;21052;-67
2022/06/20 10:40:52;;;;;;;6.50;1.85;;;;;;;16.99;100.00;100623.31;5011480;28;20028;-67
2022/06/20 10:43:36;;;;;;;76.88;19.98;;;;;;;17.48;100.00;100632.94;4995476;28;20846;-65
2022/06/20 10:46:25;;;;;;;6.28;2.75;;;;;;;17.74;100.00;100631.88;5048758;28;20054;-66
2022/06/20 10:49:16;;;;;;;4.35;2.22;;;;;;;17.85;100.00;100629.22;5043228;28;20045;-67
2022/06/20 10:52:06;;;;;;;4.60;2.15;;;;;;;17.84;100.00;100640.84;5060871;28;20037;-67
2022/06/20 10:54:48;;;;;;;691.70;131.40;;;;;;;17.30;100.00;100625.38;5071299;28;20390;-65
2022/06/20 10:57:35;;;;;;;3.95;1.90;;;;;;;17.03;100.00;100646.03;5043715;28;20107;-68
2022/06/20 11:00:10;;;;;;;5.10;2.63;;;;;;;17.22;100.00;100642.84;5059276;28;20035;-67
2022/06/20 11:02:56;;;;;;;7.60;2.50;;;;;;;17.52;100.00;100621.13;5073021;28;20058;-67
2022/06/20 11:05:43;;;;;;;6.03;2.50;;;;;;;17.91;100.00;100643.88;5053459;28;20107;-65
2022/06/20 11:08:24;;;;;;;4.75;2.35;;;;;;;17.88;100.00;100647.59;5069288;28;20024;-65
2022/06/20 11:11:26;;;;;;;6.13;2.72;;;;;;;18.04;100.00;100645.47;5072516;28;20028;-67
2022/06/20 11:13:55;;;;;;;6.78;1.95;;;;;;;18.31;100.00;100645.13;5047597;28;20032;-67
2022/06/20 11:16:43;;;;;;;5.93;2.55;;;;;;;18.76;100.00;100644.16;5076170;28;20040;-68
2022/06/20 11:19:21;;;;;;;5.70;2.08;;;;;;;19.13;100.00;100641.22;5054164;28;20031;-68
2022/06/20 11:22:21;;;;;;;4.20;1.98;;;;;;;19.50;100.00;100633.72;5034080;28;20028;-67
2022/06/20 11:25:10;;;;;;;7.80;2.22;;;;;;;19.67;100.00;100646.50;5081960;28;20037;-66
2022/06/20 11:28:02;;;;;;;4.38;2.10;;;;;;;19.41;100.00;100640.66;5086251;28;20047;-66
2022/06/20 11:30:53;;;;;;;5.97;2.78;;;;;;;19.56;97.96;100654.53;5050858;28;20036;-66
2022/06/20 11:36:40;;;;;;;4.78;2.53;;;;;;;18.83;99.81;100641.88;5073232;28;20161;-66
2022/06/20 11:39:19;;;;;;;6.68;2.40;;;;;;;18.66;94.60;100624.59;5086308;28;20093;-66
2022/06/20 11:41:50;;;;;;;6.28;2.28;;;;;;;19.25;100.00;100637.53;5084840;28;20036;-67
2022/06/20 11:44:39;;;;;;;5.38;2.38;;;;;;;19.97;100.00;100637.72;5060221;28;20115;-67
2022/06/20 11:47:16;;;;;;;6.07;2.28;;;;;;;20.38;85.37;100638.50;5060396;28;20049;-66
2022/06/20 11:50:06;;;;;;;5.68;2.50;;;;;;;20.92;80.90;100633.81;5069649;28;20084;-66
2022/06/20 11:52:56;;;;;;;6.45;2.20;;;;;;;21.73;81.05;100633.47;5073652;28;20529;-66
2022/06/20 11:55:34;;;;;;;5.63;2.47;;;;;;;20.92;81.97;100630.13;5092289;28;20082;-66
2022/06/20 11:58:20;;;;;;;4.38;2.45;;;;;;;21.12;79.42;100625.72;5068365;28;20104;-67
2022/06/20 12:01:12;;;;;;;4.82;2.40;;;;;;;21.58;76.86;100629.53;5072908;28;20056;-67
2022/06/20 12:03:43;;;;;;;5.82;2.42;;;;;;;21.38;76.13;100618.84;5052381;28;20509;-66
2022/06/20 12:06:21;;;;;;;7.38;3.20;;;;;;;21.40;83.97;100600.81;5075659;28;20415;-68